Webcam Flughafen St.Gallen-Altenrhein

Live-Bilder und Zeitraffer LSZR / ACH.

 

Live aus Altenrhein
LIVE
LSZR 182220Z AUTO 23002KT 5000 NCD 14/14 Q1021
Zeitraffer heute
2020-09-19 00:14:15
LSZR 182150Z AUTO VRB01KT 5000 NCD 15/14 Q1021